sensor_id;sensor_type;location;lat;lon;timestamp;P1;durP1;ratioP1;P2;durP2;ratioP2
72085;SDS011;64750;52.134;5.424;2024-01-27T00:00:47;11.43;;;2.45;;
72085;SDS011;64750;52.134;5.424;2024-01-27T00:03:14;11.82;;;2.47;;
72085;SDS011;64750;52.134;5.424;2024-01-27T00:05:41;8.17;;;2.53;;
72085;SDS011;64750;52.134;5.424;2024-01-27T00:08:07;6.22;;;2.10;;
72085;SDS011;64750;52.134;5.424;2024-01-27T00:10:34;12.65;;;2.45;;
72085;SDS011;64750;52.134;5.424;2024-01-27T00:13:01;12.10;;;2.40;;
72085;SDS011;64750;52.134;5.424;2024-01-27T00:15:27;5.20;;;1.80;;
72085;SDS011;64750;52.134;5.424;2024-01-27T00:17:54;9.00;;;2.13;;
72085;SDS011;64750;52.134;5.424;2024-01-27T00:20:21;9.98;;;2.85;;
72085;SDS011;64750;52.134;5.424;2024-01-27T00:22:47;8.35;;;2.30;;
72085;SDS011;64750;52.134;5.424;2024-01-27T00:25:13;5.72;;;2.20;;
72085;SDS011;64750;52.134;5.424;2024-01-27T00:27:40;8.35;;;2.40;;
72085;SDS011;64750;52.134;5.424;2024-01-27T00:30:07;13.57;;;2.33;;
72085;SDS011;64750;52.134;5.424;2024-01-27T00:32:34;4.82;;;1.63;;
72085;SDS011;64750;52.134;5.424;2024-01-27T00:35:00;8.98;;;1.73;;
72085;SDS011;64750;52.134;5.424;2024-01-27T00:37:27;3.33;;;1.70;;
72085;SDS011;64750;52.134;5.424;2024-01-27T00:39:54;10.38;;;2.25;;
72085;SDS011;64750;52.134;5.424;2024-01-27T00:42:20;12.93;;;2.43;;
72085;SDS011;64750;52.134;5.424;2024-01-27T00:44:50;10.77;;;2.60;;
72085;SDS011;64750;52.134;5.424;2024-01-27T00:47:17;6.93;;;1.92;;
72085;SDS011;64750;52.134;5.424;2024-01-27T00:49:43;5.80;;;1.95;;
72085;SDS011;64750;52.134;5.424;2024-01-27T00:52:10;9.80;;;2.08;;
72085;SDS011;64750;52.134;5.424;2024-01-27T00:54:36;10.93;;;2.20;;
72085;SDS011;64750;52.134;5.424;2024-01-27T00:57:03;15.95;;;2.30;;
72085;SDS011;64750;52.134;5.424;2024-01-27T00:59:29;7.43;;;2.00;;
72085;SDS011;64750;52.134;5.424;2024-01-27T01:01:56;8.23;;;2.50;;
72085;SDS011;64750;52.134;5.424;2024-01-27T01:04:22;13.32;;;2.30;;
72085;SDS011;64750;52.134;5.424;2024-01-27T01:06:49;5.67;;;1.40;;
72085;SDS011;64750;52.134;5.424;2024-01-27T01:09:15;8.10;;;2.15;;
72085;SDS011;64750;52.134;5.424;2024-01-27T01:11:42;6.53;;;1.75;;
72085;SDS011;64750;52.134;5.424;2024-01-27T01:14:08;9.85;;;2.30;;
72085;SDS011;64750;52.134;5.424;2024-01-27T01:16:35;4.30;;;2.20;;
72085;SDS011;64750;52.134;5.424;2024-01-27T01:19:01;9.60;;;2.03;;
72085;SDS011;64750;52.134;5.424;2024-01-27T01:21:28;9.43;;;1.70;;
72085;SDS011;64750;52.134;5.424;2024-01-27T01:23:55;4.68;;;2.03;;
72085;SDS011;64750;52.134;5.424;2024-01-27T01:26:21;9.27;;;2.33;;
72085;SDS011;64750;52.134;5.424;2024-01-27T01:28:48;10.20;;;2.40;;
72085;SDS011;64750;52.134;5.424;2024-01-27T01:31:14;11.37;;;1.97;;
72085;SDS011;64750;52.134;5.424;2024-01-27T01:33:41;9.63;;;2.38;;
72085;SDS011;64750;52.134;5.424;2024-01-27T01:36:09;11.43;;;1.90;;
72085;SDS011;64750;52.134;5.424;2024-01-27T01:38:36;5.70;;;2.17;;
72085;SDS011;64750;52.134;5.424;2024-01-27T01:41:02;8.88;;;2.38;;
72085;SDS011;64750;52.134;5.424;2024-01-27T01:43:29;6.67;;;2.10;;
72085;SDS011;64750;52.134;5.424;2024-01-27T01:45:55;12.30;;;2.55;;
72085;SDS011;64750;52.134;5.424;2024-01-27T01:48:22;11.73;;;1.80;;
72085;SDS011;64750;52.134;5.424;2024-01-27T01:50:49;8.15;;;1.67;;
72085;SDS011;64750;52.134;5.424;2024-01-27T01:53:16;5.30;;;1.80;;
72085;SDS011;64750;52.134;5.424;2024-01-27T01:55:42;13.93;;;1.70;;
72085;SDS011;64750;52.134;5.424;2024-01-27T01:58:08;7.53;;;1.58;;
72085;SDS011;64750;52.134;5.424;2024-01-27T02:00:35;6.40;;;2.35;;
72085;SDS011;64750;52.134;5.424;2024-01-27T02:03:02;6.50;;;1.85;;
72085;SDS011;64750;52.134;5.424;2024-01-27T02:05:28;12.30;;;2.00;;
72085;SDS011;64750;52.134;5.424;2024-01-27T02:07:55;7.60;;;1.60;;
72085;SDS011;64750;52.134;5.424;2024-01-27T02:10:25;6.40;;;1.98;;
72085;SDS011;64750;52.134;5.424;2024-01-27T02:12:51;10.90;;;2.05;;
72085;SDS011;64750;52.134;5.424;2024-01-27T02:15:18;10.65;;;1.55;;
72085;SDS011;64750;52.134;5.424;2024-01-27T02:17:45;6.20;;;1.48;;
72085;SDS011;64750;52.134;5.424;2024-01-27T02:20:11;9.23;;;1.60;;
72085;SDS011;64750;52.134;5.424;2024-01-27T02:22:38;10.32;;;1.73;;
72085;SDS011;64750;52.134;5.424;2024-01-27T02:25:04;4.38;;;1.50;;
72085;SDS011;64750;52.134;5.424;2024-01-27T02:27:31;11.65;;;1.75;;
72085;SDS011;64750;52.134;5.424;2024-01-27T02:29:58;8.57;;;1.48;;
72085;SDS011;64750;52.134;5.424;2024-01-27T02:32:25;8.60;;;1.77;;
72085;SDS011;64750;52.134;5.424;2024-01-27T02:34:51;4.20;;;1.80;;
72085;SDS011;64750;52.134;5.424;2024-01-27T02:37:18;7.10;;;2.20;;
72085;SDS011;64750;52.134;5.424;2024-01-27T02:39:44;12.65;;;2.17;;
72085;SDS011;64750;52.134;5.424;2024-01-27T02:42:11;7.47;;;2.15;;
72085;SDS011;64750;52.134;5.424;2024-01-27T02:44:37;6.03;;;1.87;;
72085;SDS011;64750;52.134;5.424;2024-01-27T02:47:04;7.75;;;1.52;;
72085;SDS011;64750;52.134;5.424;2024-01-27T02:49:30;8.75;;;1.42;;
72085;SDS011;64750;52.134;5.424;2024-01-27T02:51:57;6.22;;;1.70;;
72085;SDS011;64750;52.134;5.424;2024-01-27T02:54:24;5.22;;;1.45;;
72085;SDS011;64750;52.134;5.424;2024-01-27T02:56:50;12.10;;;1.67;;
72085;SDS011;64750;52.134;5.424;2024-01-27T02:59:17;3.50;;;1.20;;
72085;SDS011;64750;52.134;5.424;2024-01-27T03:01:43;5.68;;;1.67;;
72085;SDS011;64750;52.134;5.424;2024-01-27T03:04:10;6.85;;;1.23;;
72085;SDS011;64750;52.134;5.424;2024-01-27T03:06:36;5.32;;;1.35;;
72085;SDS011;64750;52.134;5.424;2024-01-27T03:09:03;5.90;;;1.27;;
72085;SDS011;64750;52.134;5.424;2024-01-27T03:11:30;8.27;;;1.75;;
72085;SDS011;64750;52.134;5.424;2024-01-27T03:13:56;9.93;;;1.40;;
72085;SDS011;64750;52.134;5.424;2024-01-27T03:16:23;11.70;;;2.15;;
72085;SDS011;64750;52.134;5.424;2024-01-27T03:18:49;13.38;;;1.50;;
72085;SDS011;64750;52.134;5.424;2024-01-27T03:21:16;4.57;;;1.23;;
72085;SDS011;64750;52.134;5.424;2024-01-27T03:23:42;4.90;;;1.52;;
72085;SDS011;64750;52.134;5.424;2024-01-27T03:26:09;11.75;;;1.52;;
72085;SDS011;64750;52.134;5.424;2024-01-27T03:28:36;5.90;;;1.50;;
72085;SDS011;64750;52.134;5.424;2024-01-27T03:31:03;7.78;;;2.00;;
72085;SDS011;64750;52.134;5.424;2024-01-27T03:33:29;5.63;;;1.50;;
72085;SDS011;64750;52.134;5.424;2024-01-27T03:35:57;5.53;;;1.30;;
72085;SDS011;64750;52.134;5.424;2024-01-27T03:38:23;6.47;;;1.35;;
72085;SDS011;64750;52.134;5.424;2024-01-27T03:40:50;4.70;;;1.67;;
72085;SDS011;64750;52.134;5.424;2024-01-27T03:43:16;7.85;;;1.52;;
72085;SDS011;64750;52.134;5.424;2024-01-27T03:45:43;7.87;;;1.77;;
72085;SDS011;64750;52.134;5.424;2024-01-27T03:48:09;5.60;;;2.25;;
72085;SDS011;64750;52.134;5.424;2024-01-27T03:50:36;6.20;;;1.95;;
72085;SDS011;64750;52.134;5.424;2024-01-27T03:53:02;10.45;;;1.92;;
72085;SDS011;64750;52.134;5.424;2024-01-27T03:55:29;8.25;;;1.83;;
72085;SDS011;64750;52.134;5.424;2024-01-27T03:57:55;10.77;;;2.23;;
72085;SDS011;64750;52.134;5.424;2024-01-27T04:00:22;4.63;;;1.83;;
72085;SDS011;64750;52.134;5.424;2024-01-27T04:02:48;4.78;;;2.10;;
72085;SDS011;64750;52.134;5.424;2024-01-27T04:05:15;14.02;;;2.40;;
72085;SDS011;64750;52.134;5.424;2024-01-27T04:07:42;6.75;;;2.45;;
72085;SDS011;64750;52.134;5.424;2024-01-27T04:10:09;10.80;;;2.70;;
72085;SDS011;64750;52.134;5.424;2024-01-27T04:12:36;3.42;;;2.70;;
72085;SDS011;64750;52.134;5.424;2024-01-27T04:15:02;8.93;;;2.67;;
72085;SDS011;64750;52.134;5.424;2024-01-27T04:17:29;3.83;;;2.75;;
72085;SDS011;64750;52.134;5.424;2024-01-27T04:19:55;9.43;;;2.35;;
72085;SDS011;64750;52.134;5.424;2024-01-27T04:22:22;9.97;;;3.87;;
72085;SDS011;64750;52.134;5.424;2024-01-27T04:24:48;11.43;;;2.83;;
72085;SDS011;64750;52.134;5.424;2024-01-27T04:27:15;4.93;;;2.70;;
72085;SDS011;64750;52.134;5.424;2024-01-27T04:29:41;9.98;;;3.20;;
72085;SDS011;64750;52.134;5.424;2024-01-27T04:32:08;14.05;;;3.10;;
72085;SDS011;64750;52.134;5.424;2024-01-27T04:34:34;8.77;;;3.10;;
72085;SDS011;64750;52.134;5.424;2024-01-27T04:37:01;8.75;;;2.90;;
72085;SDS011;64750;52.134;5.424;2024-01-27T04:39:27;8.07;;;3.30;;
72085;SDS011;64750;52.134;5.424;2024-01-27T04:41:54;7.85;;;2.97;;
72085;SDS011;64750;52.134;5.424;2024-01-27T04:44:20;9.25;;;4.05;;
72085;SDS011;64750;52.134;5.424;2024-01-27T04:46:47;11.40;;;3.23;;
72085;SDS011;64750;52.134;5.424;2024-01-27T04:49:14;6.47;;;3.15;;
72085;SDS011;64750;52.134;5.424;2024-01-27T04:51:42;9.43;;;2.83;;
72085;SDS011;64750;52.134;5.424;2024-01-27T04:54:08;8.85;;;3.60;;
72085;SDS011;64750;52.134;5.424;2024-01-27T04:56:35;13.30;;;3.92;;
72085;SDS011;64750;52.134;5.424;2024-01-27T04:59:02;9.40;;;3.33;;
72085;SDS011;64750;52.134;5.424;2024-01-27T05:01:29;9.80;;;3.30;;
72085;SDS011;64750;52.134;5.424;2024-01-27T05:03:55;16.00;;;4.00;;
72085;SDS011;64750;52.134;5.424;2024-01-27T05:06:22;9.02;;;3.95;;
72085;SDS011;64750;52.134;5.424;2024-01-27T05:08:48;10.32;;;3.17;;
72085;SDS011;64750;52.134;5.424;2024-01-27T05:11:15;17.00;;;3.97;;
72085;SDS011;64750;52.134;5.424;2024-01-27T05:13:51;4.47;;;3.92;;
72085;SDS011;64750;52.134;5.424;2024-01-27T05:16:17;6.57;;;4.45;;
72085;SDS011;64750;52.134;5.424;2024-01-27T05:18:43;10.88;;;3.95;;
72085;SDS011;64750;52.134;5.424;2024-01-27T05:21:10;9.93;;;3.67;;
72085;SDS011;64750;52.134;5.424;2024-01-27T05:23:36;12.83;;;4.20;;
72085;SDS011;64750;52.134;5.424;2024-01-27T05:26:05;6.13;;;3.78;;
72085;SDS011;64750;52.134;5.424;2024-01-27T05:28:32;11.93;;;4.65;;
72085;SDS011;64750;52.134;5.424;2024-01-27T05:30:59;8.52;;;3.97;;
72085;SDS011;64750;52.134;5.424;2024-01-27T05:33:26;11.93;;;4.53;;
72085;SDS011;64750;52.134;5.424;2024-01-27T05:35:53;12.20;;;4.17;;
72085;SDS011;64750;52.134;5.424;2024-01-27T05:38:19;11.15;;;3.92;;
72085;SDS011;64750;52.134;5.424;2024-01-27T05:40:45;8.32;;;3.92;;
72085;SDS011;64750;52.134;5.424;2024-01-27T05:43:12;8.88;;;4.50;;
72085;SDS011;64750;52.134;5.424;2024-01-27T05:45:38;8.10;;;4.15;;
72085;SDS011;64750;52.134;5.424;2024-01-27T05:48:05;15.20;;;4.67;;
72085;SDS011;64750;52.134;5.424;2024-01-27T05:50:32;7.85;;;4.45;;
72085;SDS011;64750;52.134;5.424;2024-01-27T05:53:00;8.55;;;4.43;;
72085;SDS011;64750;52.134;5.424;2024-01-27T05:55:26;14.55;;;4.53;;
72085;SDS011;64750;52.134;5.424;2024-01-27T05:57:53;13.73;;;4.57;;
72085;SDS011;64750;52.134;5.424;2024-01-27T06:00:21;11.57;;;4.80;;
72085;SDS011;64750;52.134;5.424;2024-01-27T06:02:48;12.55;;;4.72;;
72085;SDS011;64750;52.134;5.424;2024-01-27T06:05:15;13.15;;;5.13;;
72085;SDS011;64750;52.134;5.424;2024-01-27T06:07:42;11.32;;;4.60;;
72085;SDS011;64750;52.134;5.424;2024-01-27T06:10:09;10.13;;;4.95;;
72085;SDS011;64750;52.134;5.424;2024-01-27T06:12:37;10.80;;;5.10;;
72085;SDS011;64750;52.134;5.424;2024-01-27T06:15:04;7.10;;;4.80;;
72085;SDS011;64750;52.134;5.424;2024-01-27T06:17:32;9.10;;;5.35;;
72085;SDS011;64750;52.134;5.424;2024-01-27T06:19:58;12.77;;;5.05;;
72085;SDS011;64750;52.134;5.424;2024-01-27T06:22:25;9.40;;;5.30;;
72085;SDS011;64750;52.134;5.424;2024-01-27T06:24:52;10.47;;;5.30;;
72085;SDS011;64750;52.134;5.424;2024-01-27T06:27:18;15.93;;;5.97;;
72085;SDS011;64750;52.134;5.424;2024-01-27T06:29:45;12.80;;;5.82;;
72085;SDS011;64750;52.134;5.424;2024-01-27T06:32:11;15.95;;;5.70;;
72085;SDS011;64750;52.134;5.424;2024-01-27T06:34:39;8.15;;;4.90;;
72085;SDS011;64750;52.134;5.424;2024-01-27T06:37:06;9.07;;;5.17;;
72085;SDS011;64750;52.134;5.424;2024-01-27T06:39:32;12.65;;;5.45;;
72085;SDS011;64750;52.134;5.424;2024-01-27T06:41:58;13.18;;;5.47;;
72085;SDS011;64750;52.134;5.424;2024-01-27T06:44:25;10.68;;;5.22;;
72085;SDS011;64750;52.134;5.424;2024-01-27T06:46:51;14.55;;;5.95;;
72085;SDS011;64750;52.134;5.424;2024-01-27T06:49:18;9.83;;;5.13;;
72085;SDS011;64750;52.134;5.424;2024-01-27T06:51:46;8.90;;;5.32;;
72085;SDS011;64750;52.134;5.424;2024-01-27T06:54:12;12.05;;;5.95;;
72085;SDS011;64750;52.134;5.424;2024-01-27T06:56:39;11.23;;;5.32;;
72085;SDS011;64750;52.134;5.424;2024-01-27T06:59:05;11.07;;;6.03;;
72085;SDS011;64750;52.134;5.424;2024-01-27T07:01:32;10.40;;;5.33;;
72085;SDS011;64750;52.134;5.424;2024-01-27T07:03:58;10.32;;;6.07;;
72085;SDS011;64750;52.134;5.424;2024-01-27T07:06:25;12.82;;;6.43;;
72085;SDS011;64750;52.134;5.424;2024-01-27T07:08:52;12.07;;;6.03;;
72085;SDS011;64750;52.134;5.424;2024-01-27T07:11:18;9.45;;;6.03;;
72085;SDS011;64750;52.134;5.424;2024-01-27T07:13:45;18.40;;;6.00;;
72085;SDS011;64750;52.134;5.424;2024-01-27T07:16:11;8.93;;;5.85;;
72085;SDS011;64750;52.134;5.424;2024-01-27T07:18:38;13.15;;;5.88;;
72085;SDS011;64750;52.134;5.424;2024-01-27T07:21:05;17.92;;;6.03;;
72085;SDS011;64750;52.134;5.424;2024-01-27T07:23:34;10.00;;;5.68;;
72085;SDS011;64750;52.134;5.424;2024-01-27T07:26:01;17.30;;;6.40;;
72085;SDS011;64750;52.134;5.424;2024-01-27T07:28:29;9.23;;;6.03;;
72085;SDS011;64750;52.134;5.424;2024-01-27T07:30:56;9.23;;;7.35;;
72085;SDS011;64750;52.134;5.424;2024-01-27T07:33:22;9.98;;;5.65;;
72085;SDS011;64750;52.134;5.424;2024-01-27T07:35:49;14.25;;;6.65;;
72085;SDS011;64750;52.134;5.424;2024-01-27T07:38:16;9.10;;;5.83;;
72085;SDS011;64750;52.134;5.424;2024-01-27T07:40:42;9.57;;;6.63;;
72085;SDS011;64750;52.134;5.424;2024-01-27T07:43:09;12.38;;;6.15;;
72085;SDS011;64750;52.134;5.424;2024-01-27T07:45:35;9.13;;;5.70;;
72085;SDS011;64750;52.134;5.424;2024-01-27T07:48:02;16.98;;;6.50;;
72085;SDS011;64750;52.134;5.424;2024-01-27T07:50:29;11.33;;;5.60;;
72085;SDS011;64750;52.134;5.424;2024-01-27T07:52:56;8.98;;;6.32;;
72085;SDS011;64750;52.134;5.424;2024-01-27T07:55:22;11.57;;;6.32;;
72085;SDS011;64750;52.134;5.424;2024-01-27T07:57:49;15.45;;;6.20;;
72085;SDS011;64750;52.134;5.424;2024-01-27T08:00:15;11.35;;;6.40;;
72085;SDS011;64750;52.134;5.424;2024-01-27T08:02:42;17.23;;;6.73;;
72085;SDS011;64750;52.134;5.424;2024-01-27T08:05:08;7.45;;;5.50;;
72085;SDS011;64750;52.134;5.424;2024-01-27T08:07:35;8.57;;;5.22;;
72085;SDS011;64750;52.134;5.424;2024-01-27T08:10:02;13.43;;;6.00;;
72085;SDS011;64750;52.134;5.424;2024-01-27T08:12:30;13.13;;;5.85;;
72085;SDS011;64750;52.134;5.424;2024-01-27T08:14:57;10.40;;;5.33;;
72085;SDS011;64750;52.134;5.424;2024-01-27T08:17:23;8.13;;;5.60;;
72085;SDS011;64750;52.134;5.424;2024-01-27T08:19:49;8.80;;;5.57;;
72085;SDS011;64750;52.134;5.424;2024-01-27T08:22:16;12.65;;;6.13;;
72085;SDS011;64750;52.134;5.424;2024-01-27T08:24:42;8.40;;;5.75;;
72085;SDS011;64750;52.134;5.424;2024-01-27T08:27:11;15.13;;;5.70;;
72085;SDS011;64750;52.134;5.424;2024-01-27T08:29:37;10.98;;;5.90;;
72085;SDS011;64750;52.134;5.424;2024-01-27T08:32:04;10.57;;;5.93;;
72085;SDS011;64750;52.134;5.424;2024-01-27T08:34:31;10.27;;;5.35;;
72085;SDS011;64750;52.134;5.424;2024-01-27T08:36:59;12.68;;;5.78;;
72085;SDS011;64750;52.134;5.424;2024-01-27T08:39:26;10.73;;;5.40;;
72085;SDS011;64750;52.134;5.424;2024-01-27T08:41:53;16.42;;;5.80;;
72085;SDS011;64750;52.134;5.424;2024-01-27T08:44:19;13.57;;;5.60;;
72085;SDS011;64750;52.134;5.424;2024-01-27T08:46:46;14.98;;;5.72;;
72085;SDS011;64750;52.134;5.424;2024-01-27T08:49:13;9.02;;;5.57;;
72085;SDS011;64750;52.134;5.424;2024-01-27T08:51:39;8.20;;;5.17;;
72085;SDS011;64750;52.134;5.424;2024-01-27T08:54:06;9.68;;;5.65;;
72085;SDS011;64750;52.134;5.424;2024-01-27T08:56:32;8.52;;;5.43;;
72085;SDS011;64750;52.134;5.424;2024-01-27T08:58:59;16.27;;;5.15;;
72085;SDS011;64750;52.134;5.424;2024-01-27T09:01:26;13.48;;;5.05;;
72085;SDS011;64750;52.134;5.424;2024-01-27T09:03:52;9.67;;;5.10;;
72085;SDS011;64750;52.134;5.424;2024-01-27T09:06:19;13.70;;;5.35;;
72085;SDS011;64750;52.134;5.424;2024-01-27T09:08:46;12.68;;;5.55;;
72085;SDS011;64750;52.134;5.424;2024-01-27T09:11:12;6.50;;;5.05;;
72085;SDS011;64750;52.134;5.424;2024-01-27T09:13:39;8.02;;;5.05;;
72085;SDS011;64750;52.134;5.424;2024-01-27T09:16:05;15.50;;;5.90;;
72085;SDS011;64750;52.134;5.424;2024-01-27T09:18:32;7.28;;;5.03;;
72085;SDS011;64750;52.134;5.424;2024-01-27T09:20:59;11.23;;;5.30;;
72085;SDS011;64750;52.134;5.424;2024-01-27T09:23:25;9.93;;;5.82;;
72085;SDS011;64750;52.134;5.424;2024-01-27T09:25:52;15.02;;;5.38;;
72085;SDS011;64750;52.134;5.424;2024-01-27T09:28:19;11.50;;;5.30;;
72085;SDS011;64750;52.134;5.424;2024-01-27T09:30:46;8.70;;;5.70;;
72085;SDS011;64750;52.134;5.424;2024-01-27T09:33:12;10.35;;;5.10;;
72085;SDS011;64750;52.134;5.424;2024-01-27T09:35:39;8.57;;;5.45;;
72085;SDS011;64750;52.134;5.424;2024-01-27T09:38:05;10.35;;;5.57;;
72085;SDS011;64750;52.134;5.424;2024-01-27T09:40:38;12.87;;;5.73;;
72085;SDS011;64750;52.134;5.424;2024-01-27T09:43:04;8.43;;;4.97;;
72085;SDS011;64750;52.134;5.424;2024-01-27T09:45:31;11.90;;;5.65;;
72085;SDS011;64750;52.134;5.424;2024-01-27T09:47:58;14.05;;;5.88;;
72085;SDS011;64750;52.134;5.424;2024-01-27T09:50:26;10.93;;;4.63;;
72085;SDS011;64750;52.134;5.424;2024-01-27T09:52:54;7.83;;;4.93;;
72085;SDS011;64750;52.134;5.424;2024-01-27T09:55:20;10.40;;;5.40;;
72085;SDS011;64750;52.134;5.424;2024-01-27T09:57:47;14.57;;;6.18;;
72085;SDS011;64750;52.134;5.424;2024-01-27T10:00:14;9.43;;;5.70;;
72085;SDS011;64750;52.134;5.424;2024-01-27T10:02:43;10.25;;;5.47;;
72085;SDS011;64750;52.134;5.424;2024-01-27T10:05:13;10.30;;;5.57;;
72085;SDS011;64750;52.134;5.424;2024-01-27T10:07:39;11.02;;;5.18;;
72085;SDS011;64750;52.134;5.424;2024-01-27T10:10:06;12.05;;;5.68;;
72085;SDS011;64750;52.134;5.424;2024-01-27T10:12:33;16.20;;;6.32;;
72085;SDS011;64750;52.134;5.424;2024-01-27T10:15:06;11.30;;;5.15;;
72085;SDS011;64750;52.134;5.424;2024-01-27T10:17:32;6.80;;;5.40;;
72085;SDS011;64750;52.134;5.424;2024-01-27T10:20:03;11.93;;;5.70;;
72085;SDS011;64750;52.134;5.424;2024-01-27T10:22:40;11.07;;;5.47;;
72085;SDS011;64750;52.134;5.424;2024-01-27T10:25:08;13.10;;;5.22;;
72085;SDS011;64750;52.134;5.424;2024-01-27T10:27:35;7.80;;;4.57;;
72085;SDS011;64750;52.134;5.424;2024-01-27T10:30:02;10.20;;;5.30;;
72085;SDS011;64750;52.134;5.424;2024-01-27T10:32:29;8.30;;;4.63;;
72085;SDS011;64750;52.134;5.424;2024-01-27T10:35:05;13.55;;;5.20;;
72085;SDS011;64750;52.134;5.424;2024-01-27T10:37:36;9.55;;;4.45;;
72085;SDS011;64750;52.134;5.424;2024-01-27T10:40:03;13.57;;;5.18;;
72085;SDS011;64750;52.134;5.424;2024-01-27T10:42:37;8.50;;;4.40;;
72085;SDS011;64750;52.134;5.424;2024-01-27T10:45:04;14.48;;;4.72;;
72085;SDS011;64750;52.134;5.424;2024-01-27T10:47:32;15.27;;;4.22;;
72085;SDS011;64750;52.134;5.424;2024-01-27T10:50:00;20.30;;;5.22;;
72085;SDS011;64750;52.134;5.424;2024-01-27T10:52:31;10.13;;;4.82;;
72085;SDS011;64750;52.134;5.424;2024-01-27T10:54:59;7.87;;;3.87;;
72085;SDS011;64750;52.134;5.424;2024-01-27T10:57:30;12.10;;;4.93;;
72085;SDS011;64750;52.134;5.424;2024-01-27T10:59:58;10.18;;;4.72;;
72085;SDS011;64750;52.134;5.424;2024-01-27T11:02:28;7.97;;;4.63;;
72085;SDS011;64750;52.134;5.424;2024-01-27T11:05:00;10.40;;;4.20;;
72085;SDS011;64750;52.134;5.424;2024-01-27T11:07:32;7.03;;;4.43;;
72085;SDS011;64750;52.134;5.424;2024-01-27T11:10:01;8.95;;;4.78;;
72085;SDS011;64750;52.134;5.424;2024-01-27T11:12:28;11.00;;;4.50;;
72085;SDS011;64750;52.134;5.424;2024-01-27T11:14:55;8.57;;;4.28;;
72085;SDS011;64750;52.134;5.424;2024-01-27T11:17:25;7.82;;;4.57;;
72085;SDS011;64750;52.134;5.424;2024-01-27T11:19:53;12.07;;;4.00;;
72085;SDS011;64750;52.134;5.424;2024-01-27T11:22:26;8.00;;;3.92;;
72085;SDS011;64750;52.134;5.424;2024-01-27T11:25:07;11.30;;;4.70;;
72085;SDS011;64750;52.134;5.424;2024-01-27T11:27:35;15.98;;;4.75;;
72085;SDS011;64750;52.134;5.424;2024-01-27T11:30:02;13.20;;;3.90;;
72085;SDS011;64750;52.134;5.424;2024-01-27T11:32:30;8.77;;;4.10;;
72085;SDS011;64750;52.134;5.424;2024-01-27T11:34:57;8.13;;;3.85;;
72085;SDS011;64750;52.134;5.424;2024-01-27T11:37:30;19.15;;;4.28;;
72085;SDS011;64750;52.134;5.424;2024-01-27T11:40:03;10.00;;;3.95;;
72085;SDS011;64750;52.134;5.424;2024-01-27T11:42:33;9.95;;;3.90;;
72085;SDS011;64750;52.134;5.424;2024-01-27T11:45:00;9.03;;;3.87;;
72085;SDS011;64750;52.134;5.424;2024-01-27T11:47:27;10.40;;;3.70;;
72085;SDS011;64750;52.134;5.424;2024-01-27T11:49:54;10.70;;;4.88;;
72085;SDS011;64750;52.134;5.424;2024-01-27T11:52:24;8.07;;;3.83;;
72085;SDS011;64750;52.134;5.424;2024-01-27T11:54:57;8.25;;;4.07;;
72085;SDS011;64750;52.134;5.424;2024-01-27T11:57:25;9.57;;;3.60;;
72085;SDS011;64750;52.134;5.424;2024-01-27T11:59:53;10.98;;;4.53;;
72085;SDS011;64750;52.134;5.424;2024-01-27T12:02:20;7.32;;;3.83;;
72085;SDS011;64750;52.134;5.424;2024-01-27T12:04:47;10.85;;;3.53;;
72085;SDS011;64750;52.134;5.424;2024-01-27T12:07:14;9.30;;;3.67;;
72085;SDS011;64750;52.134;5.424;2024-01-27T12:09:41;15.57;;;3.57;;
72085;SDS011;64750;52.134;5.424;2024-01-27T12:12:08;12.63;;;3.95;;
72085;SDS011;64750;52.134;5.424;2024-01-27T12:14:38;7.95;;;3.15;;
72085;SDS011;64750;52.134;5.424;2024-01-27T12:17:11;10.18;;;3.58;;
72085;SDS011;64750;52.134;5.424;2024-01-27T12:19:38;16.17;;;5.53;;
72085;SDS011;64750;52.134;5.424;2024-01-27T12:22:05;10.77;;;3.63;;
72085;SDS011;64750;52.134;5.424;2024-01-27T12:24:53;11.25;;;3.30;;
72085;SDS011;64750;52.134;5.424;2024-01-27T12:27:21;8.90;;;3.05;;
72085;SDS011;64750;52.134;5.424;2024-01-27T12:29:48;11.60;;;4.13;;
72085;SDS011;64750;52.134;5.424;2024-01-27T12:32:16;8.52;;;3.50;;
72085;SDS011;64750;52.134;5.424;2024-01-27T12:34:43;9.27;;;3.70;;
72085;SDS011;64750;52.134;5.424;2024-01-27T12:37:12;10.40;;;3.03;;
72085;SDS011;64750;52.134;5.424;2024-01-27T12:39:42;5.85;;;3.00;;
72085;SDS011;64750;52.134;5.424;2024-01-27T12:42:10;11.95;;;3.60;;
72085;SDS011;64750;52.134;5.424;2024-01-27T12:44:39;7.13;;;3.80;;
72085;SDS011;64750;52.134;5.424;2024-01-27T12:47:06;12.47;;;2.70;;
72085;SDS011;64750;52.134;5.424;2024-01-27T12:49:32;9.35;;;3.25;;
72085;SDS011;64750;52.134;5.424;2024-01-27T12:51:59;8.13;;;3.10;;
72085;SDS011;64750;52.134;5.424;2024-01-27T12:54:26;6.55;;;3.25;;
72085;SDS011;64750;52.134;5.424;2024-01-27T12:56:52;10.85;;;3.15;;
72085;SDS011;64750;52.134;5.424;2024-01-27T12:59:20;6.67;;;2.73;;
72085;SDS011;64750;52.134;5.424;2024-01-27T13:01:47;11.85;;;3.25;;
72085;SDS011;64750;52.134;5.424;2024-01-27T13:04:13;9.25;;;3.15;;
72085;SDS011;64750;52.134;5.424;2024-01-27T13:06:40;10.13;;;4.38;;
72085;SDS011;64750;52.134;5.424;2024-01-27T13:09:08;7.32;;;3.28;;
72085;SDS011;64750;52.134;5.424;2024-01-27T13:11:38;6.23;;;2.63;;
72085;SDS011;64750;52.134;5.424;2024-01-27T13:14:04;9.60;;;3.47;;
72085;SDS011;64750;52.134;5.424;2024-01-27T13:16:32;12.20;;;3.83;;
72085;SDS011;64750;52.134;5.424;2024-01-27T13:18:58;5.93;;;2.92;;
72085;SDS011;64750;52.134;5.424;2024-01-27T13:21:25;7.43;;;2.35;;
72085;SDS011;64750;52.134;5.424;2024-01-27T13:23:51;6.67;;;2.67;;
72085;SDS011;64750;52.134;5.424;2024-01-27T13:26:19;10.27;;;2.90;;
72085;SDS011;64750;52.134;5.424;2024-01-27T13:28:46;6.82;;;2.88;;
72085;SDS011;64750;52.134;5.424;2024-01-27T13:31:15;9.10;;;3.13;;
72085;SDS011;64750;52.134;5.424;2024-01-27T13:33:42;10.52;;;2.88;;
72085;SDS011;64750;52.134;5.424;2024-01-27T13:36:09;9.17;;;2.40;;
72085;SDS011;64750;52.134;5.424;2024-01-27T13:38:36;6.85;;;2.75;;
72085;SDS011;64750;52.134;5.424;2024-01-27T13:41:03;7.25;;;2.75;;
72085;SDS011;64750;52.134;5.424;2024-01-27T13:43:30;11.65;;;2.53;;
72085;SDS011;64750;52.134;5.424;2024-01-27T13:45:57;7.25;;;2.50;;
72085;SDS011;64750;52.134;5.424;2024-01-27T13:48:24;7.30;;;2.83;;
72085;SDS011;64750;52.134;5.424;2024-01-27T13:50:52;9.38;;;3.33;;
72085;SDS011;64750;52.134;5.424;2024-01-27T13:53:19;8.00;;;2.63;;
72085;SDS011;64750;52.134;5.424;2024-01-27T13:55:47;10.70;;;3.20;;
72085;SDS011;64750;52.134;5.424;2024-01-27T13:58:13;8.68;;;2.88;;
72085;SDS011;64750;52.134;5.424;2024-01-27T14:00:40;7.53;;;3.10;;
72085;SDS011;64750;52.134;5.424;2024-01-27T14:03:07;11.18;;;3.00;;
72085;SDS011;64750;52.134;5.424;2024-01-27T14:05:33;14.35;;;3.13;;
72085;SDS011;64750;52.134;5.424;2024-01-27T14:08:00;13.63;;;3.58;;
72085;SDS011;64750;52.134;5.424;2024-01-27T14:10:27;6.38;;;3.17;;
72085;SDS011;64750;52.134;5.424;2024-01-27T14:12:53;6.47;;;2.97;;
72085;SDS011;64750;52.134;5.424;2024-01-27T14:15:20;13.55;;;3.45;;
72085;SDS011;64750;52.134;5.424;2024-01-27T14:17:47;13.27;;;3.63;;
72085;SDS011;64750;52.134;5.424;2024-01-27T14:20:14;11.13;;;4.32;;
72085;SDS011;64750;52.134;5.424;2024-01-27T14:22:41;11.48;;;3.80;;
72085;SDS011;64750;52.134;5.424;2024-01-27T14:25:08;11.20;;;4.03;;
72085;SDS011;64750;52.134;5.424;2024-01-27T14:27:35;7.57;;;3.53;;
72085;SDS011;64750;52.134;5.424;2024-01-27T14:30:02;8.68;;;3.90;;
72085;SDS011;64750;52.134;5.424;2024-01-27T14:32:29;9.57;;;3.40;;
72085;SDS011;64750;52.134;5.424;2024-01-27T14:34:56;7.70;;;4.07;;
72085;SDS011;64750;52.134;5.424;2024-01-27T14:37:23;12.63;;;4.10;;
72085;SDS011;64750;52.134;5.424;2024-01-27T14:39:49;9.65;;;3.60;;